createdAt,value
2017-08-10T00:00:07.539Z,1005.27
2017-08-10T00:02:31.568Z,1005.26
2017-08-10T00:04:55.648Z,1005.28
2017-08-10T00:07:19.697Z,1005.4
2017-08-10T00:09:35.389Z,1005.34
2017-08-10T00:11:59.454Z,1005.29
2017-08-10T00:14:23.521Z,1005.27
2017-08-10T00:16:47.669Z,1005.2
2017-08-10T00:19:11.681Z,1005.2
2017-08-10T00:21:35.742Z,1005.2
2017-08-10T00:23:51.412Z,1005.28
2017-08-10T00:26:07.006Z,1005.34
2017-08-10T00:28:22.596Z,1005.33
2017-08-10T00:30:46.605Z,1005.32
2017-08-10T00:33:10.594Z,1005.29
2017-08-10T00:35:26.169Z,1005.29
2017-08-10T00:37:50.296Z,1005.27
2017-08-10T00:40:14.287Z,1005.23
2017-08-10T00:42:29.832Z,1005.25
2017-08-10T00:44:53.839Z,1005.25
2017-08-10T00:47:17.852Z,1005.27
2017-08-10T00:49:42.391Z,1005.29
2017-08-10T00:52:06.392Z,1005.34
2017-08-10T00:54:30.471Z,1005.35
2017-08-10T00:56:46.052Z,1005.33
2017-08-10T00:59:01.638Z,1005.36
2017-08-10T01:01:25.595Z,1005.34
2017-08-10T01:03:49.596Z,1005.36
2017-08-10T01:06:13.585Z,1005.34
2017-08-10T01:08:37.655Z,1005.33
2017-08-10T01:10:44.766Z,1005.37
2017-08-10T01:13:00.381Z,1005.4
2017-08-10T01:15:24.359Z,1005.47
2017-08-10T01:17:48.333Z,1005.46
2017-08-10T01:19:55.525Z,1005.54
2017-08-10T01:22:19.531Z,1005.6
2017-08-10T01:24:43.628Z,1005.61
2017-08-10T01:27:07.588Z,1005.64
2017-08-10T01:29:31.515Z,1005.68
2017-08-10T01:31:55.430Z,1005.72
2017-08-10T01:34:19.927Z,1005.82
2017-08-10T01:36:43.926Z,1005.85
2017-08-10T01:38:45.275Z,1005.85
2017-08-10T01:41:09.185Z,1005.85
2017-08-10T01:43:33.133Z,1005.83
2017-08-10T01:45:48.721Z,1005.84
2017-08-10T01:48:12.685Z,1005.88
2017-08-10T01:50:36.601Z,1005.82
2017-08-10T01:52:52.126Z,1005.81
2017-08-10T01:54:53.579Z,1005.8
2017-08-10T01:57:17.555Z,1005.77
2017-08-10T01:59:19.463Z,1005.73
2017-08-10T02:01:35.004Z,1005.72
2017-08-10T02:03:58.956Z,1005.7
2017-08-10T02:06:22.985Z,1005.73
2017-08-10T02:08:46.929Z,1005.72
2017-08-10T02:11:10.860Z,1005.72
2017-08-10T02:13:34.803Z,1005.57
2017-08-10T02:15:58.803Z,1005.49
2017-08-10T02:18:22.752Z,1005.48
2017-08-10T02:20:38.282Z,1005.52
2017-08-10T02:23:02.219Z,1005.56
2017-08-10T02:25:26.158Z,1005.55
2017-08-10T02:27:50.107Z,1005.47
2017-08-10T02:30:14.017Z,1005.47
2017-08-10T02:32:37.986Z,1005.43
2017-08-10T02:35:01.969Z,1005.42
2017-08-10T02:37:17.523Z,1005.39
2017-08-10T02:39:41.514Z,1005.36
2017-08-10T02:41:57.190Z,1005.31
2017-08-10T02:45:57.042Z,1005.2
2017-08-10T02:48:21.028Z,1005.18
2017-08-10T02:50:36.596Z,1005.26
2017-08-10T02:53:00.585Z,1005.37
2017-08-10T02:55:24.640Z,1005.38
2017-08-10T02:57:48.615Z,1005.3
2017-08-10T02:59:47.291Z,1005.23
2017-08-10T03:02:11.274Z,1005.18
2017-08-10T03:04:35.194Z,1005.16
2017-08-10T03:06:37.047Z,1005.18
2017-08-10T03:08:44.273Z,1005.15
2017-08-10T03:11:08.231Z,1005.08
2017-08-10T03:13:32.198Z,1005.03
2017-08-10T03:15:47.726Z,1005.11
2017-08-10T03:18:03.273Z,1005.22
2017-08-10T03:20:27.220Z,1005.3
2017-08-10T03:22:51.133Z,1005.27
2017-08-10T03:25:06.629Z,1005.27
2017-08-10T03:27:16.528Z,1005.25
2017-08-10T03:29:32.018Z,1005.21
2017-08-10T03:31:55.985Z,1005.14
2017-08-10T03:34:20.051Z,1005.2
2017-08-10T03:36:35.558Z,1005.27
2017-08-10T03:38:59.507Z,1005.2
2017-08-10T03:41:23.455Z,1005.12
2017-08-10T03:43:47.441Z,1005.07
2017-08-10T03:46:11.396Z,1005.17
2017-08-10T03:48:18.482Z,1005.25
2017-08-10T03:50:42.415Z,1005.22
2017-08-10T03:52:57.862Z,1005.16
2017-08-10T03:55:21.868Z,1005.19
2017-08-10T03:57:45.814Z,1005.21
2017-08-10T04:00:09.765Z,1005.29
2017-08-10T04:02:33.706Z,1005.3
2017-08-10T04:04:57.627Z,1005.33
2017-08-10T04:07:21.526Z,1005.39
2017-08-10T04:09:45.373Z,1005.48
2017-08-10T04:12:09.313Z,1005.49
2017-08-10T04:14:33.203Z,1005.49
2017-08-10T04:16:57.076Z,1005.49
2017-08-10T04:19:20.971Z,1005.46
2017-08-10T04:21:44.806Z,1005.43
2017-08-10T04:24:08.693Z,1005.49
2017-08-10T04:26:32.673Z,1005.43
2017-08-10T04:28:56.564Z,1005.4
2017-08-10T04:31:12.054Z,1005.53
2017-08-10T04:33:27.611Z,1005.55
2017-08-10T04:35:51.514Z,1005.57
2017-08-10T04:38:15.437Z,1005.66
2017-08-10T04:40:17.268Z,1005.7
2017-08-10T04:42:32.772Z,1005.75
2017-08-10T04:44:34.076Z,1005.62
2017-08-10T04:46:57.964Z,1005.67
2017-08-10T04:49:21.884Z,1005.75
2017-08-10T04:51:45.791Z,1005.77
2017-08-10T04:54:01.285Z,1005.77
2017-08-10T04:56:25.208Z,1005.69
2017-08-10T04:58:40.687Z,1005.65
2017-08-10T05:01:04.596Z,1005.66
2017-08-10T05:03:28.507Z,1005.67
2017-08-10T05:07:20.226Z,1005.69
2017-08-10T05:09:35.754Z,1005.6
2017-08-10T05:11:59.675Z,1005.55
2017-08-10T05:14:23.577Z,1005.57
2017-08-10T05:16:47.442Z,1005.62
2017-08-10T05:18:48.789Z,1005.56
2017-08-10T05:21:12.728Z,1005.63
2017-08-10T05:23:36.636Z,1005.65
2017-08-10T05:26:00.538Z,1005.65
2017-08-10T05:28:24.449Z,1005.64
2017-08-10T05:30:40.044Z,1005.71
2017-08-10T05:33:04.058Z,1005.75
2017-08-10T05:35:27.920Z,1005.82
2017-08-10T05:37:51.752Z,1005.9
2017-08-10T05:40:15.688Z,1005.97
2017-08-10T05:42:39.614Z,1005.91
2017-08-10T05:44:55.251Z,1005.87
2017-08-10T05:47:19.157Z,1005.92
2017-08-10T05:49:43.160Z,1006.01
2017-08-10T05:52:07.126Z,1005.92
2017-08-10T05:54:31.012Z,1005.95
2017-08-10T05:56:54.927Z,1006.03
2017-08-10T05:59:18.935Z,1005.96
2017-08-10T06:01:42.815Z,1005.9
2017-08-10T06:04:06.614Z,1005.98
2017-08-10T06:06:30.574Z,1005.99
2017-08-10T06:08:54.436Z,1005.91
2017-08-10T06:11:18.349Z,1005.91
2017-08-10T06:13:42.229Z,1005.9
2017-08-10T06:16:06.179Z,1005.78
2017-08-10T06:18:30.018Z,1005.83
2017-08-10T06:20:53.922Z,1006.08
2017-08-10T06:23:17.850Z,1006.13
2017-08-10T06:25:41.737Z,1006.02
2017-08-10T06:28:05.687Z,1006.07
2017-08-10T06:30:29.760Z,1006.08
2017-08-10T06:32:53.619Z,1005.81
2017-08-10T06:35:17.735Z,1005.77
2017-08-10T06:37:41.493Z,1005.85
2017-08-10T06:40:05.498Z,1005.9
2017-08-10T06:42:29.335Z,1005.94
2017-08-10T06:44:53.321Z,1006.04
2017-08-10T06:47:17.222Z,1006.02
2017-08-10T06:49:41.115Z,1006
2017-08-10T06:52:05.124Z,1006.05
2017-08-10T06:54:20.626Z,1006.02
2017-08-10T06:56:44.525Z,1005.92
2017-08-10T06:59:08.457Z,1005.92
2017-08-10T07:01:32.459Z,1005.92
2017-08-10T07:03:56.407Z,1005.91
2017-08-10T07:06:20.349Z,1006.05
2017-08-10T07:08:44.409Z,1006.15
2017-08-10T07:11:08.314Z,1006.16
2017-08-10T07:13:32.209Z,1006.1
2017-08-10T07:15:56.114Z,1006.12
2017-08-10T07:18:11.577Z,1006.29
2017-08-10T07:20:27.084Z,1006.37
2017-08-10T07:22:50.937Z,1006.35
2017-08-10T07:25:06.442Z,1006.46
2017-08-10T07:27:08.250Z,1006.48
2017-08-10T07:29:32.088Z,1006.59
2017-08-10T07:31:55.902Z,1006.63
2017-08-10T07:34:19.748Z,1006.69
2017-08-10T07:36:43.602Z,1006.56
2017-08-10T07:39:07.428Z,1006.58
2017-08-10T07:41:31.265Z,1006.56
2017-08-10T07:43:46.664Z,1006.63
2017-08-10T07:46:10.493Z,1006.66
2017-08-10T07:48:34.271Z,1006.71
2017-08-10T07:50:58.156Z,1006.84
2017-08-10T07:53:21.983Z,1006.9
2017-08-10T07:55:45.789Z,1006.79
2017-08-10T07:58:09.647Z,1006.75
2017-08-10T08:00:33.475Z,1006.73
2017-08-10T08:02:57.319Z,1006.83
2017-08-10T08:05:12.733Z,1006.93
2017-08-10T08:07:36.589Z,1007.02
2017-08-10T08:10:00.367Z,1006.97
2017-08-10T08:12:24.241Z,1006.81
2017-08-10T08:14:48.233Z,1006.65
2017-08-10T08:17:03.664Z,1006.7
2017-08-10T08:19:19.106Z,1006.76
2017-08-10T08:21:43.016Z,1006.78
2017-08-10T08:24:06.897Z,1006.74
2017-08-10T08:26:22.325Z,1006.73
2017-08-10T08:28:46.190Z,1006.79
2017-08-10T08:31:10.190Z,1006.81
2017-08-10T08:33:34.070Z,1006.78
2017-08-10T08:35:57.977Z,1006.76
2017-08-10T08:38:21.875Z,1006.79
2017-08-10T08:40:45.789Z,1006.82
2017-08-10T08:43:09.675Z,1006.79
2017-08-10T08:45:33.638Z,1006.87
2017-08-10T08:47:57.577Z,1006.95
2017-08-10T08:50:13.090Z,1007.09
2017-08-10T08:52:28.597Z,1007.15
2017-08-10T08:54:44.010Z,1007.12
2017-08-10T08:57:07.937Z,1007.12
2017-08-10T08:59:31.844Z,1007.04
2017-08-10T09:01:41.734Z,1006.95
2017-08-10T09:04:05.666Z,1006.87
2017-08-10T09:06:29.591Z,1006.91
2017-08-10T09:08:22.503Z,1006.9
2017-08-10T09:10:46.420Z,1006.87
2017-08-10T09:13:10.352Z,1006.87
2017-08-10T09:15:34.246Z,1006.82
2017-08-10T09:17:58.161Z,1006.78
2017-08-10T09:20:22.082Z,1006.72
2017-08-10T09:22:45.976Z,1006.72
2017-08-10T09:25:09.928Z,1006.81
2017-08-10T09:27:33.832Z,1006.83
2017-08-10T09:29:35.187Z,1006.88
2017-08-10T09:31:50.691Z,1006.93
2017-08-10T09:34:14.584Z,1007
2017-08-10T09:36:30.061Z,1007
2017-08-10T09:38:53.972Z,1007.07
2017-08-10T09:41:09.397Z,1007.11
2017-08-10T09:43:33.303Z,1007.06
2017-08-10T09:45:57.178Z,1007.12
2017-08-10T09:48:21.085Z,1007.11
2017-08-10T09:50:44.953Z,1007.11
2017-08-10T09:53:00.416Z,1007.18
2017-08-10T09:55:24.307Z,1007.17
2017-08-10T09:57:48.196Z,1007.12
2017-08-10T10:00:12.117Z,1007.1
2017-08-10T10:02:36.144Z,1007.13
2017-08-10T10:04:51.635Z,1007.27
2017-08-10T10:07:15.556Z,1007.35
2017-08-10T10:09:39.485Z,1007.36
2017-08-10T10:12:03.376Z,1007.4
2017-08-10T10:14:27.311Z,1007.41
2017-08-10T10:16:51.230Z,1007.37
2017-08-10T10:19:15.094Z,1007.4
2017-08-10T10:21:39.033Z,1007.37
2017-08-10T10:24:02.863Z,1007.34
2017-08-10T10:26:18.440Z,1007.28
2017-08-10T10:28:33.934Z,1007.16
2017-08-10T10:30:57.853Z,1007.1
2017-08-10T10:33:21.771Z,1007.02
2017-08-10T10:35:45.673Z,1007.05
2017-08-10T10:37:52.731Z,1007.08
2017-08-10T10:40:16.677Z,1007
2017-08-10T10:42:40.625Z,1006.86
2017-08-10T10:45:04.597Z,1006.95
2017-08-10T10:47:28.593Z,1007.07
2017-08-10T10:49:52.480Z,1007.11
2017-08-10T10:52:07.998Z,1007.03
2017-08-10T10:54:31.996Z,1007.1
2017-08-10T10:56:47.414Z,1007.22
2017-08-10T10:59:11.330Z,1007.34
2017-08-10T11:01:35.230Z,1007.37
2017-08-10T11:03:59.123Z,1007.28
2017-08-10T11:06:23.051Z,1007.36
2017-08-10T11:08:46.964Z,1007.37
2017-08-10T11:11:02.452Z,1007.32
2017-08-10T11:13:26.414Z,1007.31
2017-08-10T11:15:50.260Z,1007.34
2017-08-10T11:18:14.133Z,1007.34
2017-08-10T11:20:29.599Z,1007.31
2017-08-10T11:22:53.517Z,1007.41
2017-08-10T11:25:03.396Z,1007.43
2017-08-10T11:27:10.465Z,1007.41
2017-08-10T11:29:34.382Z,1007.36
2017-08-10T11:34:31.218Z,1007.32
2017-08-10T11:36:46.730Z,1007.34
2017-08-10T11:39:10.655Z,1007.32
2017-08-10T11:41:34.571Z,1007.23
2017-08-10T11:43:58.510Z,1007.17
2017-08-10T11:46:22.412Z,1007.14
2017-08-10T11:48:46.340Z,1007.09
2017-08-10T11:51:10.262Z,1007.04
2017-08-10T11:53:25.777Z,1006.99
2017-08-10T11:55:49.712Z,1006.94
2017-08-10T11:58:14.336Z,1006.97
2017-08-10T12:00:37.555Z,1007.03
2017-08-10T12:03:01.523Z,1007
2017-08-10T12:05:25.489Z,1006.98
2017-08-10T12:07:49.570Z,1007.01
2017-08-10T12:10:13.656Z,1006.98
2017-08-10T12:12:37.729Z,1007
2017-08-10T12:14:53.261Z,1007.08
2017-08-10T12:17:17.231Z,1007.17
2017-08-10T12:19:41.269Z,1007.28
2017-08-10T12:21:56.864Z,1007.24
2017-08-10T12:24:20.834Z,1007.23
2017-08-10T12:26:44.813Z,1007.24
2017-08-10T12:29:08.772Z,1007.26
2017-08-10T12:31:32.762Z,1007.3
2017-08-10T12:33:48.365Z,1007.31
2017-08-10T12:36:04.005Z,1007.33
2017-08-10T12:38:28.033Z,1007.3
2017-08-10T12:40:43.595Z,1007.27
2017-08-10T12:43:07.581Z,1007.18
2017-08-10T12:45:23.112Z,1007.18
2017-08-10T12:47:47.143Z,1007.17
2017-08-10T12:50:11.234Z,1007.11
2017-08-10T12:52:26.868Z,1007.2
2017-08-10T12:54:50.883Z,1007.18
2017-08-10T12:57:14.975Z,1007.24
2017-08-10T12:59:38.993Z,1007.27
2017-08-10T13:02:03.032Z,1007.31
2017-08-10T13:04:27.052Z,1007.28
2017-08-10T13:06:51.103Z,1007.31
2017-08-10T13:09:06.788Z,1007.29
2017-08-10T13:11:30.861Z,1007.28
2017-08-10T13:13:32.227Z,1007.25
2017-08-10T13:15:56.282Z,1007.28
2017-08-10T13:18:20.374Z,1007.25
2017-08-10T13:20:30.271Z,1007.18
2017-08-10T13:22:45.844Z,1007.13
2017-08-10T13:25:09.810Z,1007.03
2017-08-10T13:27:25.432Z,1007.04
2017-08-10T13:29:49.451Z,1007.08
2017-08-10T13:31:56.702Z,1007.1
2017-08-10T13:34:20.715Z,1007.18
2017-08-10T13:36:44.806Z,1007.21
2017-08-10T13:38:38.231Z,1007.27
2017-08-10T13:41:02.210Z,1007.3
2017-08-10T13:43:26.210Z,1007.32
2017-08-10T13:45:27.573Z,1007.26
2017-08-10T13:47:43.215Z,1007.23
2017-08-10T13:49:58.797Z,1007.23
2017-08-10T13:52:22.819Z,1007.26
2017-08-10T13:54:38.464Z,1007.22
2017-08-10T13:57:02.474Z,1007.24
2017-08-10T13:59:18.055Z,1007.24
2017-08-10T14:01:42.047Z,1007.23
2017-08-10T14:03:57.598Z,1007.19
2017-08-10T14:05:58.956Z,1007.21
2017-08-10T14:07:52.338Z,1007.24
2017-08-10T14:10:16.409Z,1007.19
2017-08-10T14:12:40.496Z,1007.13
2017-08-10T14:14:41.854Z,1007.12
2017-08-10T14:17:05.813Z,1007.11
2017-08-10T14:19:29.701Z,1007.12
2017-08-10T14:21:53.612Z,1007.09
2017-08-10T14:24:09.083Z,1007.02
2017-08-10T14:26:33.018Z,1006.96
2017-08-10T14:28:48.579Z,1006.92
2017-08-10T14:31:12.504Z,1006.91
2017-08-10T14:33:28.048Z,1006.81
2017-08-10T14:35:29.900Z,1006.76
2017-08-10T14:37:31.823Z,1006.7
2017-08-10T14:39:55.810Z,1006.69
2017-08-10T14:42:19.816Z,1006.58
2017-08-10T14:44:52.686Z,1006.51
2017-08-10T14:47:16.645Z,1006.41
2017-08-10T14:49:40.651Z,1006.32
2017-08-10T14:52:04.611Z,1006.26
2017-08-10T14:54:28.766Z,1006.21
2017-08-10T14:56:52.763Z,1006.13
2017-08-10T14:59:16.838Z,1006.03
2017-08-10T15:01:40.862Z,1005.96
2017-08-10T15:03:56.576Z,1005.97
2017-08-10T15:06:20.699Z,1006.06
2017-08-10T15:08:36.379Z,1006.21
2017-08-10T15:11:00.566Z,1006.4
2017-08-10T15:13:24.608Z,1006.44
2017-08-10T15:15:48.848Z,1006.43
2017-08-10T15:18:04.515Z,1006.49
2017-08-10T15:20:28.685Z,1006.54
2017-08-10T15:22:44.388Z,1006.53
2017-08-10T15:25:00.138Z,1006.49
2017-08-10T15:27:24.235Z,1006.5
2017-08-10T15:29:39.879Z,1006.51
2017-08-10T15:32:04.026Z,1006.62
2017-08-10T15:34:19.724Z,1006.63
2017-08-10T15:36:35.405Z,1006.64
2017-08-10T15:38:59.579Z,1006.7
2017-08-10T15:41:23.657Z,1006.56
2017-08-10T15:43:47.847Z,1006.48
2017-08-10T15:46:03.519Z,1006.57
2017-08-10T15:48:19.265Z,1006.61
2017-08-10T15:50:43.407Z,1006.69
2017-08-10T15:53:07.573Z,1006.8
2017-08-10T15:55:31.667Z,1006.85
2017-08-10T15:57:55.709Z,1006.82
2017-08-10T16:00:19.809Z,1006.77
2017-08-10T16:02:43.919Z,1006.77
2017-08-10T16:05:07.987Z,1006.69
2017-08-10T16:07:32.009Z,1006.75
2017-08-10T16:09:56.147Z,1006.81
2017-08-10T16:12:20.212Z,1006.84
2017-08-10T16:14:44.310Z,1006.81
2017-08-10T16:16:59.954Z,1006.66
2017-08-10T16:19:23.955Z,1006.72
2017-08-10T16:21:48.044Z,1006.68
2017-08-10T16:24:18.595Z,1006.73
2017-08-10T16:26:42.681Z,1006.84
2017-08-10T16:29:06.657Z,1006.85
2017-08-10T16:31:30.592Z,1006.87
2017-08-10T16:33:54.596Z,1006.87
2017-08-10T16:36:18.683Z,1006.93
2017-08-10T16:38:34.204Z,1006.91
2017-08-10T16:40:50.067Z,1006.86
2017-08-10T16:43:13.808Z,1006.85
2017-08-10T16:45:29.301Z,1006.83
2017-08-10T16:47:31.148Z,1006.8
2017-08-10T16:49:46.666Z,1006.76
2017-08-10T16:52:10.586Z,1006.74
2017-08-10T16:54:26.068Z,1006.69
2017-08-10T16:56:50.102Z,1006.76
2017-08-10T16:59:14.050Z,1006.85
2017-08-10T17:01:29.599Z,1006.93
2017-08-10T17:03:53.425Z,1006.9
2017-08-10T17:06:17.392Z,1006.8
2017-08-10T17:08:41.307Z,1006.83
2017-08-10T17:11:05.260Z,1006.78
2017-08-10T17:13:29.236Z,1006.8
2017-08-10T17:15:53.208Z,1006.78
2017-08-10T17:18:24.066Z,1006.8
2017-08-10T17:20:39.513Z,1006.74
2017-08-10T17:23:04.327Z,1006.68
2017-08-10T17:25:28.384Z,1006.63
2017-08-10T17:27:52.218Z,1006.62
2017-08-10T17:30:16.013Z,1006.66
2017-08-10T17:32:40.027Z,1006.6
2017-08-10T17:35:03.912Z,1006.56
2017-08-10T17:37:27.830Z,1006.58
2017-08-10T17:39:51.722Z,1006.56
2017-08-10T17:42:15.735Z,1006.53
2017-08-10T17:44:39.749Z,1006.51
2017-08-10T17:46:59.054Z,1006.56
2017-08-10T17:49:22.909Z,1006.59
2017-08-10T17:51:46.987Z,1006.59
2017-08-10T17:54:10.815Z,1006.51
2017-08-10T17:56:34.849Z,1006.6
2017-08-10T17:58:58.787Z,1006.63
2017-08-10T18:01:22.680Z,1006.6
2017-08-10T18:03:24.524Z,1006.6
2017-08-10T18:05:48.410Z,1006.7
2017-08-10T18:08:04.029Z,1006.64
2017-08-10T18:10:27.697Z,1006.65
2017-08-10T18:12:51.574Z,1006.66
2017-08-10T18:15:15.365Z,1006.69
2017-08-10T18:17:39.219Z,1006.7
2017-08-10T18:20:07.003Z,1006.67
2017-08-10T18:22:30.830Z,1006.64
2017-08-10T18:24:54.687Z,1006.67
2017-08-10T18:27:18.527Z,1006.69
2017-08-10T18:29:42.398Z,1006.7
2017-08-10T18:32:06.363Z,1006.74
2017-08-10T18:34:30.087Z,1006.73
2017-08-10T18:36:31.393Z,1006.71
2017-08-10T18:38:33.194Z,1006.68
2017-08-10T18:40:57.083Z,1006.59
2017-08-10T18:43:20.940Z,1006.56
2017-08-10T18:45:52.793Z,1006.49
2017-08-10T18:48:16.628Z,1006.5
2017-08-10T18:50:41.555Z,1006.49
2017-08-10T18:53:05.383Z,1006.49
2017-08-10T18:55:29.275Z,1006.41
2017-08-10T18:57:53.088Z,1006.36
2017-08-10T19:00:17.113Z,1006.39
2017-08-10T19:02:40.991Z,1006.32
2017-08-10T19:05:04.907Z,1006.36
2017-08-10T19:07:08.582Z,1006.34
2017-08-10T19:09:33.638Z,1006.29
2017-08-10T19:11:57.672Z,1006.28
2017-08-10T19:14:21.517Z,1006.27
2017-08-10T19:16:45.529Z,1006.22
2017-08-10T19:19:09.408Z,1006.31
2017-08-10T19:21:33.434Z,1006.32
2017-08-10T19:23:43.917Z,1006.35
2017-08-10T19:26:07.497Z,1006.4
2017-08-10T19:28:31.531Z,1006.38
2017-08-10T19:30:55.569Z,1006.31
2017-08-10T19:33:19.686Z,1006.31
2017-08-10T19:35:43.888Z,1006.28
2017-08-10T19:38:08.516Z,1006.29
2017-08-10T19:40:32.793Z,1006.37
2017-08-10T19:42:57.167Z,1006.47
2017-08-10T19:45:21.467Z,1006.46
2017-08-10T19:47:45.822Z,1006.42
2017-08-10T19:49:58.861Z,1006.44
2017-08-10T19:52:22.922Z,1006.41
2017-08-10T19:56:22.734Z,1006.42
2017-08-10T19:58:46.772Z,1006.45
2017-08-10T20:01:10.808Z,1006.46
2017-08-10T20:03:34.810Z,1006.43
2017-08-10T20:05:58.657Z,1006.4
2017-08-10T20:08:22.527Z,1006.39
2017-08-10T20:10:46.307Z,1006.36
2017-08-10T20:13:01.757Z,1006.29
2017-08-10T20:17:01.957Z,1006.33
2017-08-10T20:19:25.780Z,1006.35
2017-08-10T20:21:49.581Z,1006.39
2017-08-10T20:24:13.302Z,1006.4
2017-08-10T20:26:37.096Z,1006.43
2017-08-10T20:28:52.464Z,1006.45
2017-08-10T20:31:16.280Z,1006.48
2017-08-10T20:33:40.147Z,1006.41
2017-08-10T20:36:03.982Z,1006.37
2017-08-10T20:38:27.735Z,1006.36
2017-08-10T20:40:51.554Z,1006.3
2017-08-10T20:43:01.946Z,1006.28
2017-08-10T20:45:25.769Z,1006.28
2017-08-10T20:47:46.448Z,1006.21
2017-08-10T20:50:13.157Z,1006.27
2017-08-10T20:52:36.887Z,1006.25
2017-08-10T20:55:00.659Z,1006.2
2017-08-10T20:57:24.465Z,1006.17
2017-08-10T20:59:48.198Z,1006.12
2017-08-10T21:02:12.175Z,1006.09
2017-08-10T21:04:36.159Z,1006.09
2017-08-10T21:06:59.967Z,1006.05
2017-08-10T21:09:23.661Z,1005.98
2017-08-10T21:11:47.675Z,1005.96
2017-08-10T21:14:12.588Z,1006.01
2017-08-10T21:16:37.452Z,1006.02
2017-08-10T21:19:01.343Z,1006.01
2017-08-10T21:21:25.195Z,1006.03
2017-08-10T21:23:48.981Z,1005.97
2017-08-10T21:26:12.794Z,1005.92
2017-08-10T21:28:36.609Z,1005.92
2017-08-10T21:31:01.472Z,1005.95
2017-08-10T21:33:25.318Z,1005.99
2017-08-10T21:35:49.201Z,1006.01
2017-08-10T21:38:15.009Z,1006.03
2017-08-10T21:40:38.878Z,1006.12
2017-08-10T21:43:02.576Z,1006.14
2017-08-10T21:45:26.455Z,1006.13
2017-08-10T21:47:41.823Z,1006.13
2017-08-10T21:50:05.660Z,1006.14
2017-08-10T21:52:29.659Z,1006.14
2017-08-10T21:54:53.453Z,1006.26
2017-08-10T21:57:17.416Z,1006.33
2017-08-10T21:59:41.302Z,1006.35
2017-08-10T22:02:05.242Z,1006.39
2017-08-10T22:04:28.891Z,1006.36
2017-08-10T22:06:52.670Z,1006.36
2017-08-10T22:08:54.835Z,1006.39
2017-08-10T22:11:36.423Z,1006.44
2017-08-10T22:14:00.568Z,1006.4
2017-08-10T22:16:24.431Z,1006.37
2017-08-10T22:18:48.309Z,1006.41
2017-08-10T22:21:18.835Z,1006.39
2017-08-10T22:23:29.280Z,1006.36
2017-08-10T22:25:53.076Z,1006.37
2017-08-10T22:28:16.922Z,1006.37
2017-08-10T22:30:40.620Z,1006.3
2017-08-10T22:33:04.383Z,1006.29
2017-08-10T22:35:28.143Z,1006.29
2017-08-10T22:37:51.886Z,1006.32
2017-08-10T22:41:51.963Z,1006.25
2017-08-10T22:44:30.435Z,1006.26
2017-08-10T22:46:54.180Z,1006.27
2017-08-10T22:49:17.918Z,1006.21
2017-08-10T22:51:19.741Z,1006.15
2017-08-10T22:53:43.456Z,1006.16
2017-08-10T22:56:07.245Z,1006.21
2017-08-10T22:58:31.033Z,1006.24
2017-08-10T23:00:54.894Z,1006.21
2017-08-10T23:03:18.716Z,1006.29
2017-08-10T23:05:42.467Z,1006.28
2017-08-10T23:08:06.261Z,1006.27
2017-08-10T23:10:29.970Z,1006.21
2017-08-10T23:12:54.135Z,1006.27
2017-08-10T23:15:17.817Z,1006.27
2017-08-10T23:17:41.627Z,1006.21
2017-08-10T23:20:07.398Z,1006.15
2017-08-10T23:22:33.234Z,1006.1
2017-08-10T23:24:56.896Z,1006.05
2017-08-10T23:27:22.589Z,1005.99
2017-08-10T23:29:54.025Z,1005.98
2017-08-10T23:32:17.819Z,1005.91
2017-08-10T23:34:41.570Z,1005.87
2017-08-10T23:37:05.313Z,1005.8
2017-08-10T23:39:29.067Z,1005.9
2017-08-10T23:41:52.825Z,1005.96
2017-08-10T23:44:16.616Z,1005.97
2017-08-10T23:46:40.440Z,1005.99
2017-08-10T23:49:05.243Z,1005.94
2017-08-10T23:51:36.669Z,1005.65
2017-08-10T23:54:00.438Z,1005.8
2017-08-10T23:56:24.165Z,1005.76
2017-08-10T23:58:47.912Z,1005.73
